sensor_id;sensor_type;location;lat;lon;timestamp;P1;durP1;ratioP1;P2;durP2;ratioP2
71753;SDS011;59593;51.716;7.016;2023-08-08T00:00:37;5.13;;;3.05;;
71753;SDS011;59593;51.716;7.016;2023-08-08T00:03:03;4.78;;;3.28;;
71753;SDS011;59593;51.716;7.016;2023-08-08T00:05:32;5.05;;;3.00;;
71753;SDS011;59593;51.716;7.016;2023-08-08T00:08:00;6.22;;;3.47;;
71753;SDS011;59593;51.716;7.016;2023-08-08T00:10:26;5.95;;;3.10;;
71753;SDS011;59593;51.716;7.016;2023-08-08T00:12:52;4.97;;;3.03;;
71753;SDS011;59593;51.716;7.016;2023-08-08T00:15:17;5.35;;;3.40;;
71753;SDS011;59593;51.716;7.016;2023-08-08T00:17:43;3.78;;;2.92;;
71753;SDS011;59593;51.716;7.016;2023-08-08T00:20:12;5.82;;;3.00;;
71753;SDS011;59593;51.716;7.016;2023-08-08T00:22:41;4.13;;;2.90;;
71753;SDS011;59593;51.716;7.016;2023-08-08T00:25:09;4.60;;;3.03;;
71753;SDS011;59593;51.716;7.016;2023-08-08T00:27:35;7.20;;;3.17;;
71753;SDS011;59593;51.716;7.016;2023-08-08T00:30:07;6.80;;;3.17;;
71753;SDS011;59593;51.716;7.016;2023-08-08T00:32:33;4.93;;;3.60;;
71753;SDS011;59593;51.716;7.016;2023-08-08T00:35:05;7.18;;;3.28;;
71753;SDS011;59593;51.716;7.016;2023-08-08T00:37:30;4.97;;;3.45;;
71753;SDS011;59593;51.716;7.016;2023-08-08T00:40:01;7.88;;;3.13;;
71753;SDS011;59593;51.716;7.016;2023-08-08T00:42:29;6.28;;;3.33;;
71753;SDS011;59593;51.716;7.016;2023-08-08T00:44:54;5.88;;;2.92;;
71753;SDS011;59593;51.716;7.016;2023-08-08T00:47:26;5.05;;;2.55;;
71753;SDS011;59593;51.716;7.016;2023-08-08T00:49:53;7.05;;;2.80;;
71753;SDS011;59593;51.716;7.016;2023-08-08T00:52:18;5.70;;;2.95;;
71753;SDS011;59593;51.716;7.016;2023-08-08T00:54:49;4.18;;;2.88;;
71753;SDS011;59593;51.716;7.016;2023-08-08T00:57:18;4.95;;;2.80;;
71753;SDS011;59593;51.716;7.016;2023-08-08T00:59:48;4.55;;;2.60;;
71753;SDS011;59593;51.716;7.016;2023-08-08T01:02:13;4.97;;;2.90;;
71753;SDS011;59593;51.716;7.016;2023-08-08T01:04:42;4.22;;;2.60;;
71753;SDS011;59593;51.716;7.016;2023-08-08T01:07:36;4.32;;;2.85;;
71753;SDS011;59593;51.716;7.016;2023-08-08T01:10:29;4.30;;;2.78;;
71753;SDS011;59593;51.716;7.016;2023-08-08T01:13:20;4.00;;;2.60;;
71753;SDS011;59593;51.716;7.016;2023-08-08T01:15:48;5.00;;;2.75;;
71753;SDS011;59593;51.716;7.016;2023-08-08T01:18:15;4.30;;;2.90;;
71753;SDS011;59593;51.716;7.016;2023-08-08T01:20:42;4.10;;;2.88;;
71753;SDS011;59593;51.716;7.016;2023-08-08T01:23:14;5.20;;;2.83;;
71753;SDS011;59593;51.716;7.016;2023-08-08T01:25:45;5.97;;;2.95;;
71753;SDS011;59593;51.716;7.016;2023-08-08T01:28:15;6.13;;;2.72;;
71753;SDS011;59593;51.716;7.016;2023-08-08T01:30:41;6.03;;;2.78;;
71753;SDS011;59593;51.716;7.016;2023-08-08T01:33:09;3.63;;;2.70;;
71753;SDS011;59593;51.716;7.016;2023-08-08T01:35:38;2.83;;;2.58;;
71753;SDS011;59593;51.716;7.016;2023-08-08T01:38:28;7.50;;;2.97;;
71753;SDS011;59593;51.716;7.016;2023-08-08T01:40:59;4.63;;;2.90;;
71753;SDS011;59593;51.716;7.016;2023-08-08T01:43:30;3.45;;;2.72;;
71753;SDS011;59593;51.716;7.016;2023-08-08T01:45:59;4.38;;;2.80;;
71753;SDS011;59593;51.716;7.016;2023-08-08T01:48:29;6.22;;;2.90;;
71753;SDS011;59593;51.716;7.016;2023-08-08T01:50:55;6.20;;;2.80;;
71753;SDS011;59593;51.716;7.016;2023-08-08T01:53:20;4.97;;;2.90;;
71753;SDS011;59593;51.716;7.016;2023-08-08T01:55:46;5.78;;;2.80;;
71753;SDS011;59593;51.716;7.016;2023-08-08T01:58:12;4.45;;;2.80;;
71753;SDS011;59593;51.716;7.016;2023-08-08T02:00:38;4.88;;;2.83;;
71753;SDS011;59593;51.716;7.016;2023-08-08T02:03:06;4.82;;;2.90;;
71753;SDS011;59593;51.716;7.016;2023-08-08T02:05:34;6.35;;;2.97;;
71753;SDS011;59593;51.716;7.016;2023-08-08T02:08:00;5.15;;;2.95;;
71753;SDS011;59593;51.716;7.016;2023-08-08T02:10:35;5.38;;;2.80;;
71753;SDS011;59593;51.716;7.016;2023-08-08T02:13:04;4.85;;;2.85;;
71753;SDS011;59593;51.716;7.016;2023-08-08T02:15:32;8.52;;;2.88;;
71753;SDS011;59593;51.716;7.016;2023-08-08T02:17:59;5.78;;;3.10;;
71753;SDS011;59593;51.716;7.016;2023-08-08T02:20:27;5.97;;;3.08;;
71753;SDS011;59593;51.716;7.016;2023-08-08T02:22:59;5.05;;;3.30;;
71753;SDS011;59593;51.716;7.016;2023-08-08T02:25:27;6.70;;;2.90;;
71753;SDS011;59593;51.716;7.016;2023-08-08T02:27:56;8.80;;;2.95;;
71753;SDS011;59593;51.716;7.016;2023-08-08T02:30:27;6.75;;;2.95;;
71753;SDS011;59593;51.716;7.016;2023-08-08T02:32:55;5.57;;;3.40;;
71753;SDS011;59593;51.716;7.016;2023-08-08T02:35:21;8.80;;;2.92;;
71753;SDS011;59593;51.716;7.016;2023-08-08T02:37:47;7.65;;;3.30;;
71753;SDS011;59593;51.716;7.016;2023-08-08T02:40:17;5.22;;;2.85;;
71753;SDS011;59593;51.716;7.016;2023-08-08T02:42:43;4.70;;;3.10;;
71753;SDS011;59593;51.716;7.016;2023-08-08T02:45:09;5.63;;;3.20;;
71753;SDS011;59593;51.716;7.016;2023-08-08T02:47:53;6.53;;;3.08;;
71753;SDS011;59593;51.716;7.016;2023-08-08T02:50:19;6.05;;;3.28;;
71753;SDS011;59593;51.716;7.016;2023-08-08T02:52:53;5.60;;;3.05;;
71753;SDS011;59593;51.716;7.016;2023-08-08T02:55:22;5.25;;;3.20;;
71753;SDS011;59593;51.716;7.016;2023-08-08T02:57:47;4.50;;;2.90;;
71753;SDS011;59593;51.716;7.016;2023-08-08T03:00:16;8.32;;;3.63;;
71753;SDS011;59593;51.716;7.016;2023-08-08T03:02:42;7.75;;;3.50;;
71753;SDS011;59593;51.716;7.016;2023-08-08T03:05:11;6.25;;;3.35;;
71753;SDS011;59593;51.716;7.016;2023-08-08T03:07:38;6.07;;;3.03;;
71753;SDS011;59593;51.716;7.016;2023-08-08T03:10:04;3.95;;;3.05;;
71753;SDS011;59593;51.716;7.016;2023-08-08T03:12:34;7.95;;;3.72;;
71753;SDS011;59593;51.716;7.016;2023-08-08T03:15:00;5.18;;;3.33;;
71753;SDS011;59593;51.716;7.016;2023-08-08T03:17:26;7.50;;;3.33;;
71753;SDS011;59593;51.716;7.016;2023-08-08T03:19:51;8.85;;;3.60;;
71753;SDS011;59593;51.716;7.016;2023-08-08T03:22:17;6.35;;;3.53;;
71753;SDS011;59593;51.716;7.016;2023-08-08T03:24:46;6.57;;;3.65;;
71753;SDS011;59593;51.716;7.016;2023-08-08T03:27:12;6.90;;;3.53;;
71753;SDS011;59593;51.716;7.016;2023-08-08T03:29:40;9.05;;;3.60;;
71753;SDS011;59593;51.716;7.016;2023-08-08T03:32:06;8.57;;;3.78;;
71753;SDS011;59593;51.716;7.016;2023-08-08T03:34:32;6.85;;;3.45;;
71753;SDS011;59593;51.716;7.016;2023-08-08T03:36:58;8.07;;;3.95;;
71753;SDS011;59593;51.716;7.016;2023-08-08T03:39:24;6.43;;;3.40;;
71753;SDS011;59593;51.716;7.016;2023-08-08T03:41:50;8.63;;;3.33;;
71753;SDS011;59593;51.716;7.016;2023-08-08T03:44:15;7.85;;;3.95;;
71753;SDS011;59593;51.716;7.016;2023-08-08T03:46:41;7.57;;;3.70;;
71753;SDS011;59593;51.716;7.016;2023-08-08T03:49:10;10.27;;;3.65;;
71753;SDS011;59593;51.716;7.016;2023-08-08T03:51:35;8.32;;;4.00;;
71753;SDS011;59593;51.716;7.016;2023-08-08T03:54:01;6.03;;;3.65;;
71753;SDS011;59593;51.716;7.016;2023-08-08T03:56:28;6.47;;;3.55;;
71753;SDS011;59593;51.716;7.016;2023-08-08T03:58:58;8.15;;;3.85;;
71753;SDS011;59593;51.716;7.016;2023-08-08T04:01:24;10.63;;;3.80;;
71753;SDS011;59593;51.716;7.016;2023-08-08T04:03:53;6.93;;;4.00;;
71753;SDS011;59593;51.716;7.016;2023-08-08T04:06:22;9.50;;;4.00;;
71753;SDS011;59593;51.716;7.016;2023-08-08T04:08:49;10.38;;;4.45;;
71753;SDS011;59593;51.716;7.016;2023-08-08T04:11:15;9.40;;;4.20;;
71753;SDS011;59593;51.716;7.016;2023-08-08T04:13:44;13.23;;;4.70;;
71753;SDS011;59593;51.716;7.016;2023-08-08T04:16:10;8.15;;;4.75;;
71753;SDS011;59593;51.716;7.016;2023-08-08T04:18:38;8.80;;;4.50;;
71753;SDS011;59593;51.716;7.016;2023-08-08T04:21:06;10.07;;;5.00;;
71753;SDS011;59593;51.716;7.016;2023-08-08T04:23:34;12.15;;;5.18;;
71753;SDS011;59593;51.716;7.016;2023-08-08T04:26:06;10.07;;;5.65;;
71753;SDS011;59593;51.716;7.016;2023-08-08T04:28:38;10.48;;;5.40;;
71753;SDS011;59593;51.716;7.016;2023-08-08T04:31:17;10.38;;;5.57;;
71753;SDS011;59593;51.716;7.016;2023-08-08T04:34:00;12.15;;;5.85;;
71753;SDS011;59593;51.716;7.016;2023-08-08T04:36:46;10.90;;;5.78;;
71753;SDS011;59593;51.716;7.016;2023-08-08T04:39:27;10.88;;;6.32;;
71753;SDS011;59593;51.716;7.016;2023-08-08T04:42:05;13.73;;;6.15;;
71753;SDS011;59593;51.716;7.016;2023-08-08T04:44:40;14.02;;;6.35;;
71753;SDS011;59593;51.716;7.016;2023-08-08T04:47:16;15.00;;;6.53;;
71753;SDS011;59593;51.716;7.016;2023-08-08T04:49:45;9.80;;;6.50;;
71753;SDS011;59593;51.716;7.016;2023-08-08T04:52:18;13.40;;;6.28;;
71753;SDS011;59593;51.716;7.016;2023-08-08T04:54:53;15.50;;;6.68;;
71753;SDS011;59593;51.716;7.016;2023-08-08T04:57:49;22.92;;;7.35;;
71753;SDS011;59593;51.716;7.016;2023-08-08T05:00:26;14.88;;;7.38;;
71753;SDS011;59593;51.716;7.016;2023-08-08T05:02:54;13.00;;;6.65;;
71753;SDS011;59593;51.716;7.016;2023-08-08T05:10:30;11.18;;;6.78;;
71753;SDS011;59593;51.716;7.016;2023-08-08T05:13:06;15.20;;;6.93;;
71753;SDS011;59593;51.716;7.016;2023-08-08T05:15:45;15.32;;;7.25;;
71753;SDS011;59593;51.716;7.016;2023-08-08T05:21:34;16.90;;;7.85;;
71753;SDS011;59593;51.716;7.016;2023-08-08T05:24:18;15.90;;;8.88;;
71753;SDS011;59593;51.716;7.016;2023-08-08T05:26:50;17.10;;;9.00;;
71753;SDS011;59593;51.716;7.016;2023-08-08T05:29:29;13.43;;;9.68;;
71753;SDS011;59593;51.716;7.016;2023-08-08T05:32:07;18.20;;;9.80;;
71753;SDS011;59593;51.716;7.016;2023-08-08T05:35:38;17.42;;;9.63;;
71753;SDS011;59593;51.716;7.016;2023-08-08T05:38:28;15.73;;;10.00;;
71753;SDS011;59593;51.716;7.016;2023-08-08T05:41:29;14.50;;;9.45;;
71753;SDS011;59593;51.716;7.016;2023-08-08T05:44:20;16.55;;;10.80;;
71753;SDS011;59593;51.716;7.016;2023-08-08T05:50:33;17.42;;;10.65;;
71753;SDS011;59593;51.716;7.016;2023-08-08T05:52:57;18.90;;;11.65;;
71753;SDS011;59593;51.716;7.016;2023-08-08T06:08:07;19.10;;;11.18;;
71753;SDS011;59593;51.716;7.016;2023-08-08T06:10:47;20.58;;;11.73;;
71753;SDS011;59593;51.716;7.016;2023-08-08T06:13:18;26.05;;;12.30;;
71753;SDS011;59593;51.716;7.016;2023-08-08T06:15:49;23.05;;;13.32;;
71753;SDS011;59593;51.716;7.016;2023-08-08T06:18:18;18.85;;;13.32;;
71753;SDS011;59593;51.716;7.016;2023-08-08T06:23:14;22.95;;;12.88;;
71753;SDS011;59593;51.716;7.016;2023-08-08T06:25:42;17.05;;;12.75;;
71753;SDS011;59593;51.716;7.016;2023-08-08T06:28:32;16.17;;;12.23;;
71753;SDS011;59593;51.716;7.016;2023-08-08T06:31:43;19.35;;;12.73;;
71753;SDS011;59593;51.716;7.016;2023-08-08T06:34:14;24.25;;;13.63;;
71753;SDS011;59593;51.716;7.016;2023-08-08T06:36:52;17.90;;;13.27;;
71753;SDS011;59593;51.716;7.016;2023-08-08T06:39:26;20.63;;;13.93;;
71753;SDS011;59593;51.716;7.016;2023-08-08T06:42:04;17.08;;;12.98;;
71753;SDS011;59593;51.716;7.016;2023-08-08T07:01:26;21.67;;;13.75;;
71753;SDS011;59593;51.716;7.016;2023-08-08T10:12:47;4.32;;;1.60;;
71753;SDS011;59593;51.716;7.016;2023-08-08T10:19:09;5.68;;;1.98;;
71753;SDS011;59593;51.716;7.016;2023-08-08T10:22:04;2.83;;;2.00;;
71753;SDS011;59593;51.716;7.016;2023-08-08T10:25:19;7.18;;;1.98;;
71753;SDS011;59593;51.716;7.016;2023-08-08T10:28:05;4.15;;;2.13;;
71753;SDS011;59593;51.716;7.016;2023-08-08T10:37:51;5.10;;;1.60;;
71753;SDS011;59593;51.716;7.016;2023-08-08T10:39:54;5.22;;;1.85;;
71753;SDS011;59593;51.716;7.016;2023-08-08T10:42:45;6.30;;;2.08;;
71753;SDS011;59593;51.716;7.016;2023-08-08T10:48:07;4.10;;;1.80;;
71753;SDS011;59593;51.716;7.016;2023-08-08T10:50:59;4.25;;;1.80;;
71753;SDS011;59593;51.716;7.016;2023-08-08T11:01:10;4.25;;;1.55;;
71753;SDS011;59593;51.716;7.016;2023-08-08T11:35:20;3.38;;;2.22;;
71753;SDS011;59593;51.716;7.016;2023-08-08T11:41:58;5.93;;;2.30;;
71753;SDS011;59593;51.716;7.016;2023-08-08T11:44:39;3.67;;;1.75;;
71753;SDS011;59593;51.716;7.016;2023-08-08T11:47:57;3.97;;;2.03;;
71753;SDS011;59593;51.716;7.016;2023-08-08T11:51:24;4.18;;;2.08;;
71753;SDS011;59593;51.716;7.016;2023-08-08T11:54:01;5.85;;;2.00;;
71753;SDS011;59593;51.716;7.016;2023-08-08T11:56:32;6.75;;;2.00;;
71753;SDS011;59593;51.716;7.016;2023-08-08T11:59:01;5.47;;;1.80;;
71753;SDS011;59593;51.716;7.016;2023-08-08T12:02:18;4.30;;;1.90;;
71753;SDS011;59593;51.716;7.016;2023-08-08T12:33:28;7.22;;;1.98;;
71753;SDS011;59593;51.716;7.016;2023-08-08T12:36:09;3.10;;;1.90;;
71753;SDS011;59593;51.716;7.016;2023-08-08T12:38:35;3.90;;;1.80;;
71753;SDS011;59593;51.716;7.016;2023-08-08T12:41:54;3.03;;;1.63;;
71753;SDS011;59593;51.716;7.016;2023-08-08T12:44:25;3.90;;;1.63;;
71753;SDS011;59593;51.716;7.016;2023-08-08T12:47:04;1.73;;;1.25;;
71753;SDS011;59593;51.716;7.016;2023-08-08T12:53:21;4.28;;;2.00;;
71753;SDS011;59593;51.716;7.016;2023-08-08T12:56:30;4.22;;;1.83;;
71753;SDS011;59593;51.716;7.016;2023-08-08T14:15:22;2.25;;;1.80;;
71753;SDS011;59593;51.716;7.016;2023-08-08T14:18:28;4.32;;;2.20;;
71753;SDS011;59593;51.716;7.016;2023-08-08T14:20:54;3.22;;;1.80;;
71753;SDS011;59593;51.716;7.016;2023-08-08T14:23:29;4.88;;;1.90;;
71753;SDS011;59593;51.716;7.016;2023-08-08T14:26:20;3.75;;;1.98;;
71753;SDS011;59593;51.716;7.016;2023-08-08T14:38:00;3.03;;;1.52;;
71753;SDS011;59593;51.716;7.016;2023-08-08T14:43:41;2.95;;;1.40;;
71753;SDS011;59593;51.716;7.016;2023-08-08T14:49:28;2.72;;;1.45;;
71753;SDS011;59593;51.716;7.016;2023-08-08T14:52:55;4.90;;;2.08;;
71753;SDS011;59593;51.716;7.016;2023-08-08T14:56:11;2.60;;;1.20;;
71753;SDS011;59593;51.716;7.016;2023-08-08T15:02:51;4.35;;;1.25;;
71753;SDS011;59593;51.716;7.016;2023-08-08T15:44:28;4.63;;;1.38;;
71753;SDS011;59593;51.716;7.016;2023-08-08T15:47:03;3.42;;;1.02;;
71753;SDS011;59593;51.716;7.016;2023-08-08T15:49:34;3.22;;;1.17;;
71753;SDS011;59593;51.716;7.016;2023-08-08T15:52:11;2.72;;;1.00;;
71753;SDS011;59593;51.716;7.016;2023-08-08T15:55:03;1.48;;;1.00;;
71753;SDS011;59593;51.716;7.016;2023-08-08T15:58:26;1.95;;;1.00;;
71753;SDS011;59593;51.716;7.016;2023-08-08T16:07:15;2.50;;;0.98;;
71753;SDS011;59593;51.716;7.016;2023-08-08T16:09:59;1.80;;;1.00;;
71753;SDS011;59593;51.716;7.016;2023-08-08T16:12:49;1.77;;;0.95;;
71753;SDS011;59593;51.716;7.016;2023-08-08T16:18:08;2.47;;;1.13;;
71753;SDS011;59593;51.716;7.016;2023-08-08T16:20:59;3.08;;;1.20;;
71753;SDS011;59593;51.716;7.016;2023-08-08T16:23:58;1.77;;;0.95;;
71753;SDS011;59593;51.716;7.016;2023-08-08T16:33:13;1.90;;;1.05;;
71753;SDS011;59593;51.716;7.016;2023-08-08T16:49:25;2.45;;;1.10;;
71753;SDS011;59593;51.716;7.016;2023-08-08T16:52:41;2.47;;;1.17;;
71753;SDS011;59593;51.716;7.016;2023-08-08T17:12:34;1.83;;;1.00;;
71753;SDS011;59593;51.716;7.016;2023-08-08T17:15:08;4.22;;;1.40;;
71753;SDS011;59593;51.716;7.016;2023-08-08T17:21:08;3.38;;;1.20;;
71753;SDS011;59593;51.716;7.016;2023-08-08T17:23:36;1.35;;;1.10;;
71753;SDS011;59593;51.716;7.016;2023-08-08T18:14:38;4.63;;;1.30;;
71753;SDS011;59593;51.716;7.016;2023-08-08T18:17:25;2.28;;;1.30;;
71753;SDS011;59593;51.716;7.016;2023-08-08T18:19:57;3.22;;;1.50;;
71753;SDS011;59593;51.716;7.016;2023-08-08T18:28:21;2.83;;;1.30;;
71753;SDS011;59593;51.716;7.016;2023-08-08T18:31:36;2.60;;;1.50;;
71753;SDS011;59593;51.716;7.016;2023-08-08T18:37:33;2.67;;;1.30;;
71753;SDS011;59593;51.716;7.016;2023-08-08T18:40:24;2.17;;;1.40;;
71753;SDS011;59593;51.716;7.016;2023-08-08T18:43:34;3.80;;;1.80;;
71753;SDS011;59593;51.716;7.016;2023-08-08T18:46:25;2.70;;;1.65;;
71753;SDS011;59593;51.716;7.016;2023-08-08T18:48:57;4.70;;;1.50;;
71753;SDS011;59593;51.716;7.016;2023-08-08T18:55:53;2.53;;;1.65;;
71753;SDS011;59593;51.716;7.016;2023-08-08T19:01:56;1.95;;;1.55;;
71753;SDS011;59593;51.716;7.016;2023-08-08T19:53:54;6.00;;;2.22;;
71753;SDS011;59593;51.716;7.016;2023-08-08T19:59:47;5.57;;;3.10;;
71753;SDS011;59593;51.716;7.016;2023-08-08T20:02:32;4.85;;;3.08;;
71753;SDS011;59593;51.716;7.016;2023-08-08T21:14:55;2.92;;;2.17;;
71753;SDS011;59593;51.716;7.016;2023-08-08T21:17:21;3.40;;;2.17;;
71753;SDS011;59593;51.716;7.016;2023-08-08T21:19:48;3.67;;;2.15;;
71753;SDS011;59593;51.716;7.016;2023-08-08T21:22:30;3.05;;;2.00;;
71753;SDS011;59593;51.716;7.016;2023-08-08T21:24:58;3.35;;;2.00;;
71753;SDS011;59593;51.716;7.016;2023-08-08T21:27:30;2.88;;;1.73;;
71753;SDS011;59593;51.716;7.016;2023-08-08T21:30:03;3.45;;;1.80;;
71753;SDS011;59593;51.716;7.016;2023-08-08T21:32:32;4.15;;;2.20;;
71753;SDS011;59593;51.716;7.016;2023-08-08T21:35:03;2.90;;;1.95;;
71753;SDS011;59593;51.716;7.016;2023-08-08T21:37:52;3.97;;;2.10;;
71753;SDS011;59593;51.716;7.016;2023-08-08T21:40:20;2.83;;;2.30;;
71753;SDS011;59593;51.716;7.016;2023-08-08T21:42:57;3.65;;;2.28;;
71753;SDS011;59593;51.716;7.016;2023-08-08T21:45:25;2.30;;;1.85;;
71753;SDS011;59593;51.716;7.016;2023-08-08T21:47:53;2.38;;;1.77;;
71753;SDS011;59593;51.716;7.016;2023-08-08T21:50:20;5.20;;;2.35;;
71753;SDS011;59593;51.716;7.016;2023-08-08T21:52:49;2.10;;;1.58;;
71753;SDS011;59593;51.716;7.016;2023-08-08T21:55:20;2.50;;;1.60;;
71753;SDS011;59593;51.716;7.016;2023-08-08T21:57:47;2.00;;;1.80;;
71753;SDS011;59593;51.716;7.016;2023-08-08T22:02:59;1.77;;;1.67;;
